Auburndale, Florida
Current Conditions -  °F | °C
As of 3:53 PM on Tuesday 21 Oct 2014 (Local Time) from KGIF Reporting Station
Scattered Clouds Scattered Clouds  
Wind Chill: 28°   Ceiling: Unl
Heat Index: 28°   Visibility: 10mi
Dew Point: 17°   Wind: 0mph
Humidity: 52%   Direction: NA
Pressure: 29.92"   Gusts: NA
Location:  28.06°N, 81.78°W
Report Text: KGIF 211953Z AUTO 00000KT 10SM SCT060 28/17 A2992 RMK AO2 SLP131 T02780172
Loading
Personal Weather Stations






























Interactive Weather Map
Tropical Storm Tracking
New forecast layout! Learn more

10-Day Weather Forecast

Advertisements
Track Severe Weather on mobile